Providence, Rhode Island
Traffic Map
Current Weather Conditions
Providence, Rhode Island
Broken Clouds Light Rain
Broken Clouds
42°
Feels Like: 34°
Wind Chill: 34° Ceiling: 5000
Heat Index: 42° Visibility: 8mi
Dew Point: 36° Wind: 16mph
Humidity: 79% Direction: 60° (ENE)
Pressure: 29.9in Gusts: 0mph
Raw Report DataKPVD 162051Z 06014KT 8SM -RA SCT020 BKN050 BKN070 06/02 A2990 RMK AO2 SLP125 RAB14E30B40 P0000 60000 T00560022 56026 $
Traffic Incident Summary
Active as of:
Severity:
Category:
InformationThere was an issue retrieving the traffic information for this location. Please try a different location or try again shortly.
Advertisements